sensor_id;sensor_type;location;lat;lon;timestamp;P1;durP1;ratioP1;P2;durP2;ratioP2
24383;SDS011;12504;52.870;8.798;2023-12-20T00:01:05;17.73;;;2.63;;
24383;SDS011;12504;52.870;8.798;2023-12-20T00:03:31;9.38;;;2.35;;
24383;SDS011;12504;52.870;8.798;2023-12-20T00:05:56;3.58;;;1.52;;
24383;SDS011;12504;52.870;8.798;2023-12-20T00:08:23;5.13;;;1.33;;
24383;SDS011;12504;52.870;8.798;2023-12-20T00:10:48;5.97;;;2.25;;
24383;SDS011;12504;52.870;8.798;2023-12-20T00:13:14;9.10;;;1.88;;
24383;SDS011;12504;52.870;8.798;2023-12-20T00:15:40;7.55;;;2.00;;
24383;SDS011;12504;52.870;8.798;2023-12-20T00:18:05;11.98;;;1.73;;
24383;SDS011;12504;52.870;8.798;2023-12-20T00:20:31;8.82;;;2.88;;
24383;SDS011;12504;52.870;8.798;2023-12-20T00:22:57;8.57;;;2.10;;
24383;SDS011;12504;52.870;8.798;2023-12-20T00:25:23;9.15;;;1.88;;
24383;SDS011;12504;52.870;8.798;2023-12-20T00:27:49;6.18;;;2.08;;
24383;SDS011;12504;52.870;8.798;2023-12-20T00:30:15;15.63;;;2.03;;
24383;SDS011;12504;52.870;8.798;2023-12-20T00:32:41;5.25;;;1.90;;
24383;SDS011;12504;52.870;8.798;2023-12-20T00:35:16;13.27;;;1.90;;
24383;SDS011;12504;52.870;8.798;2023-12-20T00:37:44;4.72;;;1.27;;
24383;SDS011;12504;52.870;8.798;2023-12-20T00:40:10;7.85;;;2.88;;
24383;SDS011;12504;52.870;8.798;2023-12-20T00:42:36;12.68;;;2.05;;
24383;SDS011;12504;52.870;8.798;2023-12-20T00:45:02;5.90;;;1.30;;
24383;SDS011;12504;52.870;8.798;2023-12-20T00:47:29;8.85;;;1.75;;
24383;SDS011;12504;52.870;8.798;2023-12-20T00:49:58;5.40;;;2.13;;
24383;SDS011;12504;52.870;8.798;2023-12-20T00:52:24;13.52;;;2.33;;
24383;SDS011;12504;52.870;8.798;2023-12-20T00:54:50;7.18;;;1.83;;
24383;SDS011;12504;52.870;8.798;2023-12-20T00:57:22;6.47;;;2.03;;
24383;SDS011;12504;52.870;8.798;2023-12-20T00:59:48;3.10;;;2.38;;
24383;SDS011;12504;52.870;8.798;2023-12-20T01:02:14;11.95;;;1.52;;
24383;SDS011;12504;52.870;8.798;2023-12-20T01:04:40;10.43;;;1.85;;
24383;SDS011;12504;52.870;8.798;2023-12-20T01:07:08;15.15;;;2.15;;
24383;SDS011;12504;52.870;8.798;2023-12-20T01:09:34;23.35;;;2.28;;
24383;SDS011;12504;52.870;8.798;2023-12-20T01:11:59;8.00;;;2.10;;
24383;SDS011;12504;52.870;8.798;2023-12-20T01:14:25;6.05;;;1.67;;
24383;SDS011;12504;52.870;8.798;2023-12-20T01:16:51;4.13;;;1.50;;
24383;SDS011;12504;52.870;8.798;2023-12-20T01:19:16;8.80;;;1.88;;
24383;SDS011;12504;52.870;8.798;2023-12-20T01:21:42;3.00;;;1.50;;
24383;SDS011;12504;52.870;8.798;2023-12-20T01:24:08;6.43;;;1.65;;
24383;SDS011;12504;52.870;8.798;2023-12-20T01:26:34;4.30;;;1.88;;
24383;SDS011;12504;52.870;8.798;2023-12-20T01:29:00;6.63;;;2.03;;
24383;SDS011;12504;52.870;8.798;2023-12-20T01:31:26;6.20;;;3.20;;
24383;SDS011;12504;52.870;8.798;2023-12-20T01:33:54;11.50;;;2.17;;
24383;SDS011;12504;52.870;8.798;2023-12-20T01:36:20;8.70;;;1.65;;
24383;SDS011;12504;52.870;8.798;2023-12-20T01:38:45;6.07;;;1.55;;
24383;SDS011;12504;52.870;8.798;2023-12-20T01:41:11;11.25;;;1.92;;
24383;SDS011;12504;52.870;8.798;2023-12-20T01:43:36;8.57;;;1.63;;
24383;SDS011;12504;52.870;8.798;2023-12-20T01:46:02;14.63;;;2.63;;
24383;SDS011;12504;52.870;8.798;2023-12-20T01:48:28;10.27;;;1.83;;
24383;SDS011;12504;52.870;8.798;2023-12-20T01:50:57;8.50;;;2.10;;
24383;SDS011;12504;52.870;8.798;2023-12-20T01:53:24;7.78;;;2.13;;
24383;SDS011;12504;52.870;8.798;2023-12-20T01:55:51;11.23;;;1.77;;
24383;SDS011;12504;52.870;8.798;2023-12-20T01:58:19;7.55;;;1.73;;
24383;SDS011;12504;52.870;8.798;2023-12-20T02:00:45;12.45;;;1.73;;
24383;SDS011;12504;52.870;8.798;2023-12-20T02:03:11;9.30;;;2.08;;
24383;SDS011;12504;52.870;8.798;2023-12-20T02:05:37;8.80;;;2.53;;
24383;SDS011;12504;52.870;8.798;2023-12-20T02:08:04;12.68;;;2.25;;
24383;SDS011;12504;52.870;8.798;2023-12-20T02:10:30;8.95;;;2.42;;
24383;SDS011;12504;52.870;8.798;2023-12-20T02:12:56;8.05;;;2.25;;
24383;SDS011;12504;52.870;8.798;2023-12-20T02:15:22;6.90;;;2.92;;
24383;SDS011;12504;52.870;8.798;2023-12-20T02:17:48;8.98;;;2.35;;
24383;SDS011;12504;52.870;8.798;2023-12-20T02:20:14;10.88;;;2.60;;
24383;SDS011;12504;52.870;8.798;2023-12-20T02:22:42;13.70;;;3.47;;
24383;SDS011;12504;52.870;8.798;2023-12-20T02:25:08;9.73;;;2.13;;
24383;SDS011;12504;52.870;8.798;2023-12-20T02:27:34;3.70;;;2.03;;
24383;SDS011;12504;52.870;8.798;2023-12-20T02:30:00;12.90;;;3.28;;
24383;SDS011;12504;52.870;8.798;2023-12-20T02:32:25;11.15;;;3.05;;
24383;SDS011;12504;52.870;8.798;2023-12-20T02:34:51;19.85;;;3.00;;
24383;SDS011;12504;52.870;8.798;2023-12-20T02:37:17;9.52;;;3.15;;
24383;SDS011;12504;52.870;8.798;2023-12-20T02:39:43;9.98;;;2.50;;
24383;SDS011;12504;52.870;8.798;2023-12-20T02:42:08;5.20;;;2.38;;
24383;SDS011;12504;52.870;8.798;2023-12-20T02:44:34;7.50;;;3.22;;
24383;SDS011;12504;52.870;8.798;2023-12-20T02:47:00;13.10;;;3.42;;
24383;SDS011;12504;52.870;8.798;2023-12-20T02:49:25;5.15;;;2.40;;
24383;SDS011;12504;52.870;8.798;2023-12-20T02:51:51;9.10;;;2.78;;
24383;SDS011;12504;52.870;8.798;2023-12-20T02:54:17;8.23;;;2.47;;
24383;SDS011;12504;52.870;8.798;2023-12-20T02:56:42;6.65;;;3.33;;
24383;SDS011;12504;52.870;8.798;2023-12-20T02:59:08;9.98;;;2.45;;
24383;SDS011;12504;52.870;8.798;2023-12-20T03:01:34;11.57;;;3.42;;
24383;SDS011;12504;52.870;8.798;2023-12-20T03:04:00;10.95;;;2.35;;
24383;SDS011;12504;52.870;8.798;2023-12-20T03:06:26;5.47;;;2.13;;
24383;SDS011;12504;52.870;8.798;2023-12-20T03:08:52;6.85;;;2.30;;
24383;SDS011;12504;52.870;8.798;2023-12-20T03:11:17;8.57;;;3.10;;
24383;SDS011;12504;52.870;8.798;2023-12-20T03:13:43;5.13;;;2.17;;
24383;SDS011;12504;52.870;8.798;2023-12-20T03:16:09;5.90;;;1.92;;
24383;SDS011;12504;52.870;8.798;2023-12-20T03:18:35;10.48;;;1.75;;
24383;SDS011;12504;52.870;8.798;2023-12-20T03:21:01;12.10;;;2.10;;
24383;SDS011;12504;52.870;8.798;2023-12-20T03:23:30;10.48;;;2.30;;
24383;SDS011;12504;52.870;8.798;2023-12-20T03:25:59;8.65;;;2.58;;
24383;SDS011;12504;52.870;8.798;2023-12-20T03:28:26;12.43;;;2.13;;
24383;SDS011;12504;52.870;8.798;2023-12-20T03:30:52;9.07;;;2.33;;
24383;SDS011;12504;52.870;8.798;2023-12-20T03:33:17;14.48;;;2.58;;
24383;SDS011;12504;52.870;8.798;2023-12-20T03:35:43;4.45;;;2.30;;
24383;SDS011;12504;52.870;8.798;2023-12-20T03:38:09;9.30;;;2.88;;
24383;SDS011;12504;52.870;8.798;2023-12-20T03:40:34;13.18;;;2.53;;
24383;SDS011;12504;52.870;8.798;2023-12-20T03:43:03;9.02;;;3.25;;
24383;SDS011;12504;52.870;8.798;2023-12-20T03:45:29;14.25;;;3.15;;
24383;SDS011;12504;52.870;8.798;2023-12-20T03:47:55;17.30;;;3.85;;
24383;SDS011;12504;52.870;8.798;2023-12-20T03:50:25;11.25;;;2.95;;
24383;SDS011;12504;52.870;8.798;2023-12-20T03:52:52;11.35;;;2.53;;
24383;SDS011;12504;52.870;8.798;2023-12-20T03:55:18;15.45;;;4.00;;
24383;SDS011;12504;52.870;8.798;2023-12-20T03:57:46;9.00;;;3.83;;
24383;SDS011;12504;52.870;8.798;2023-12-20T04:00:12;9.93;;;3.63;;
24383;SDS011;12504;52.870;8.798;2023-12-20T04:02:39;12.40;;;3.70;;
24383;SDS011;12504;52.870;8.798;2023-12-20T04:05:05;11.35;;;4.03;;
24383;SDS011;12504;52.870;8.798;2023-12-20T04:07:35;12.45;;;4.28;;
24383;SDS011;12504;52.870;8.798;2023-12-20T04:10:03;12.20;;;3.67;;
24383;SDS011;12504;52.870;8.798;2023-12-20T04:12:32;15.32;;;4.07;;
24383;SDS011;12504;52.870;8.798;2023-12-20T04:15:01;11.95;;;3.65;;
24383;SDS011;12504;52.870;8.798;2023-12-20T04:17:33;16.83;;;4.13;;
24383;SDS011;12504;52.870;8.798;2023-12-20T04:19:59;11.43;;;4.40;;
24383;SDS011;12504;52.870;8.798;2023-12-20T04:22:25;12.07;;;4.35;;
24383;SDS011;12504;52.870;8.798;2023-12-20T04:24:51;11.95;;;4.15;;
24383;SDS011;12504;52.870;8.798;2023-12-20T04:27:16;11.55;;;3.95;;
24383;SDS011;12504;52.870;8.798;2023-12-20T04:29:42;15.23;;;3.65;;
24383;SDS011;12504;52.870;8.798;2023-12-20T04:32:07;11.77;;;3.65;;
24383;SDS011;12504;52.870;8.798;2023-12-20T04:34:33;13.77;;;4.18;;
24383;SDS011;12504;52.870;8.798;2023-12-20T04:36:59;13.25;;;4.30;;
24383;SDS011;12504;52.870;8.798;2023-12-20T04:39:28;10.32;;;3.88;;
24383;SDS011;12504;52.870;8.798;2023-12-20T04:41:54;12.73;;;5.05;;
24383;SDS011;12504;52.870;8.798;2023-12-20T04:44:20;20.85;;;4.80;;
24383;SDS011;12504;52.870;8.798;2023-12-20T04:46:45;13.50;;;3.92;;
24383;SDS011;12504;52.870;8.798;2023-12-20T04:49:14;9.13;;;3.97;;
24383;SDS011;12504;52.870;8.798;2023-12-20T04:51:40;11.98;;;4.18;;
24383;SDS011;12504;52.870;8.798;2023-12-20T04:54:09;14.55;;;3.90;;
24383;SDS011;12504;52.870;8.798;2023-12-20T04:56:36;10.73;;;4.30;;
24383;SDS011;12504;52.870;8.798;2023-12-20T04:59:02;13.40;;;3.40;;
24383;SDS011;12504;52.870;8.798;2023-12-20T05:01:27;7.15;;;3.95;;
24383;SDS011;12504;52.870;8.798;2023-12-20T05:03:53;9.00;;;3.47;;
24383;SDS011;12504;52.870;8.798;2023-12-20T05:06:19;9.95;;;3.85;;
24383;SDS011;12504;52.870;8.798;2023-12-20T05:08:44;9.73;;;2.88;;
24383;SDS011;12504;52.870;8.798;2023-12-20T05:11:13;12.52;;;3.22;;
24383;SDS011;12504;52.870;8.798;2023-12-20T05:13:40;8.57;;;3.28;;
24383;SDS011;12504;52.870;8.798;2023-12-20T05:16:06;22.05;;;3.05;;
24383;SDS011;12504;52.870;8.798;2023-12-20T05:18:31;16.42;;;3.55;;
24383;SDS011;12504;52.870;8.798;2023-12-20T05:20:57;10.77;;;3.50;;
24383;SDS011;12504;52.870;8.798;2023-12-20T05:23:23;20.50;;;3.85;;
24383;SDS011;12504;52.870;8.798;2023-12-20T05:25:49;12.18;;;3.33;;
24383;SDS011;12504;52.870;8.798;2023-12-20T05:28:15;8.90;;;4.25;;
24383;SDS011;12504;52.870;8.798;2023-12-20T05:30:42;12.48;;;3.05;;
24383;SDS011;12504;52.870;8.798;2023-12-20T05:33:08;13.43;;;3.60;;
24383;SDS011;12504;52.870;8.798;2023-12-20T05:35:34;25.75;;;3.95;;
24383;SDS011;12504;52.870;8.798;2023-12-20T05:38:00;15.15;;;4.32;;
24383;SDS011;12504;52.870;8.798;2023-12-20T05:40:25;17.17;;;3.72;;
24383;SDS011;12504;52.870;8.798;2023-12-20T05:42:51;13.38;;;3.17;;
24383;SDS011;12504;52.870;8.798;2023-12-20T05:47:50;16.08;;;3.70;;
24383;SDS011;12504;52.870;8.798;2023-12-20T05:50:15;26.88;;;4.95;;
24383;SDS011;12504;52.870;8.798;2023-12-20T05:52:41;12.90;;;3.83;;
24383;SDS011;12504;52.870;8.798;2023-12-20T05:55:06;14.55;;;4.63;;
24383;SDS011;12504;52.870;8.798;2023-12-20T05:57:32;12.75;;;2.85;;
24383;SDS011;12504;52.870;8.798;2023-12-20T05:59:58;10.65;;;3.45;;
24383;SDS011;12504;52.870;8.798;2023-12-20T06:02:23;7.22;;;3.53;;
24383;SDS011;12504;52.870;8.798;2023-12-20T06:04:49;11.05;;;4.07;;
24383;SDS011;12504;52.870;8.798;2023-12-20T06:07:15;13.85;;;3.70;;
24383;SDS011;12504;52.870;8.798;2023-12-20T06:09:41;8.55;;;4.00;;
24383;SDS011;12504;52.870;8.798;2023-12-20T06:12:08;12.85;;;4.63;;
24383;SDS011;12504;52.870;8.798;2023-12-20T06:14:34;16.55;;;4.47;;
24383;SDS011;12504;52.870;8.798;2023-12-20T06:17:00;19.48;;;5.13;;
24383;SDS011;12504;52.870;8.798;2023-12-20T06:19:26;24.48;;;4.68;;
24383;SDS011;12504;52.870;8.798;2023-12-20T06:21:52;16.33;;;5.00;;
24383;SDS011;12504;52.870;8.798;2023-12-20T06:24:17;21.50;;;5.00;;
24383;SDS011;12504;52.870;8.798;2023-12-20T06:26:43;14.45;;;4.13;;
24383;SDS011;12504;52.870;8.798;2023-12-20T06:29:08;19.63;;;5.53;;
24383;SDS011;12504;52.870;8.798;2023-12-20T06:31:34;24.50;;;5.97;;
24383;SDS011;12504;52.870;8.798;2023-12-20T06:34:00;13.93;;;4.40;;
24383;SDS011;12504;52.870;8.798;2023-12-20T06:36:26;23.52;;;3.80;;
24383;SDS011;12504;52.870;8.798;2023-12-20T06:38:52;13.20;;;4.28;;
24383;SDS011;12504;52.870;8.798;2023-12-20T06:41:17;9.63;;;4.43;;
24383;SDS011;12504;52.870;8.798;2023-12-20T06:43:43;18.85;;;5.47;;
24383;SDS011;12504;52.870;8.798;2023-12-20T06:46:09;21.50;;;4.53;;
24383;SDS011;12504;52.870;8.798;2023-12-20T06:48:35;20.65;;;5.20;;
24383;SDS011;12504;52.870;8.798;2023-12-20T06:51:01;22.23;;;5.50;;
24383;SDS011;12504;52.870;8.798;2023-12-20T06:53:27;11.20;;;4.70;;
24383;SDS011;12504;52.870;8.798;2023-12-20T06:55:53;14.73;;;5.30;;
24383;SDS011;12504;52.870;8.798;2023-12-20T06:58:18;17.23;;;5.43;;
24383;SDS011;12504;52.870;8.798;2023-12-20T07:00:44;22.70;;;4.70;;
24383;SDS011;12504;52.870;8.798;2023-12-20T07:03:10;16.02;;;4.80;;
24383;SDS011;12504;52.870;8.798;2023-12-20T07:05:35;13.48;;;4.47;;
24383;SDS011;12504;52.870;8.798;2023-12-20T07:08:01;21.02;;;5.18;;
24383;SDS011;12504;52.870;8.798;2023-12-20T07:10:26;20.38;;;5.45;;
24383;SDS011;12504;52.870;8.798;2023-12-20T07:12:52;16.90;;;4.65;;
24383;SDS011;12504;52.870;8.798;2023-12-20T07:15:20;15.45;;;4.45;;
24383;SDS011;12504;52.870;8.798;2023-12-20T07:17:47;13.23;;;4.10;;
24383;SDS011;12504;52.870;8.798;2023-12-20T07:20:12;21.23;;;5.80;;
24383;SDS011;12504;52.870;8.798;2023-12-20T07:22:47;27.50;;;5.30;;
24383;SDS011;12504;52.870;8.798;2023-12-20T07:25:12;17.58;;;4.88;;
24383;SDS011;12504;52.870;8.798;2023-12-20T07:27:38;20.25;;;5.35;;
24383;SDS011;12504;52.870;8.798;2023-12-20T07:30:04;18.98;;;5.38;;
24383;SDS011;12504;52.870;8.798;2023-12-20T07:32:30;15.70;;;4.68;;
24383;SDS011;12504;52.870;8.798;2023-12-20T07:34:55;19.02;;;4.72;;
24383;SDS011;12504;52.870;8.798;2023-12-20T07:37:21;13.80;;;4.13;;
24383;SDS011;12504;52.870;8.798;2023-12-20T07:39:47;11.23;;;4.50;;
24383;SDS011;12504;52.870;8.798;2023-12-20T07:42:12;16.95;;;4.68;;
24383;SDS011;12504;52.870;8.798;2023-12-20T07:44:38;17.70;;;4.68;;
24383;SDS011;12504;52.870;8.798;2023-12-20T07:47:04;21.75;;;4.30;;
24383;SDS011;12504;52.870;8.798;2023-12-20T07:49:32;15.48;;;4.13;;
24383;SDS011;12504;52.870;8.798;2023-12-20T07:51:58;16.17;;;3.88;;
24383;SDS011;12504;52.870;8.798;2023-12-20T07:54:24;30.35;;;5.30;;
24383;SDS011;12504;52.870;8.798;2023-12-20T07:56:49;8.68;;;3.55;;
24383;SDS011;12504;52.870;8.798;2023-12-20T07:59:15;23.48;;;5.13;;
24383;SDS011;12504;52.870;8.798;2023-12-20T08:01:41;21.42;;;4.10;;
24383;SDS011;12504;52.870;8.798;2023-12-20T08:04:07;7.72;;;3.78;;
24383;SDS011;12504;52.870;8.798;2023-12-20T08:06:33;15.70;;;3.40;;
24383;SDS011;12504;52.870;8.798;2023-12-20T08:08:59;10.68;;;4.00;;
24383;SDS011;12504;52.870;8.798;2023-12-20T08:11:24;11.02;;;3.40;;
24383;SDS011;12504;52.870;8.798;2023-12-20T08:13:50;16.10;;;4.47;;
24383;SDS011;12504;52.870;8.798;2023-12-20T08:16:16;18.13;;;4.43;;
24383;SDS011;12504;52.870;8.798;2023-12-20T08:18:42;16.77;;;5.13;;
24383;SDS011;12504;52.870;8.798;2023-12-20T08:21:08;14.35;;;4.38;;
24383;SDS011;12504;52.870;8.798;2023-12-20T08:23:34;16.52;;;4.38;;
24383;SDS011;12504;52.870;8.798;2023-12-20T08:26:03;12.95;;;3.83;;
24383;SDS011;12504;52.870;8.798;2023-12-20T08:28:33;21.52;;;4.55;;
24383;SDS011;12504;52.870;8.798;2023-12-20T08:30:58;13.73;;;4.45;;
24383;SDS011;12504;52.870;8.798;2023-12-20T08:33:25;16.58;;;4.97;;
24383;SDS011;12504;52.870;8.798;2023-12-20T08:35:51;11.35;;;3.83;;
24383;SDS011;12504;52.870;8.798;2023-12-20T08:38:20;8.60;;;4.28;;
24383;SDS011;12504;52.870;8.798;2023-12-20T08:40:46;23.73;;;4.05;;
24383;SDS011;12504;52.870;8.798;2023-12-20T08:43:12;13.90;;;4.60;;
24383;SDS011;12504;52.870;8.798;2023-12-20T08:45:38;10.35;;;3.97;;
24383;SDS011;12504;52.870;8.798;2023-12-20T08:48:04;13.35;;;4.25;;
24383;SDS011;12504;52.870;8.798;2023-12-20T08:50:30;14.57;;;4.18;;
24383;SDS011;12504;52.870;8.798;2023-12-20T08:52:56;11.40;;;4.18;;
24383;SDS011;12504;52.870;8.798;2023-12-20T08:55:21;10.45;;;3.65;;
24383;SDS011;12504;52.870;8.798;2023-12-20T08:57:47;17.63;;;4.00;;
24383;SDS011;12504;52.870;8.798;2023-12-20T09:00:14;10.02;;;3.88;;
24383;SDS011;12504;52.870;8.798;2023-12-20T09:02:40;16.45;;;4.70;;
24383;SDS011;12504;52.870;8.798;2023-12-20T09:05:06;13.70;;;4.03;;
24383;SDS011;12504;52.870;8.798;2023-12-20T09:07:32;17.70;;;4.38;;
24383;SDS011;12504;52.870;8.798;2023-12-20T09:09:57;13.52;;;3.95;;
24383;SDS011;12504;52.870;8.798;2023-12-20T09:12:23;11.65;;;3.40;;
24383;SDS011;12504;52.870;8.798;2023-12-20T09:14:50;6.50;;;2.95;;
24383;SDS011;12504;52.870;8.798;2023-12-20T09:17:17;9.55;;;4.50;;
24383;SDS011;12504;52.870;8.798;2023-12-20T09:19:43;15.55;;;4.47;;
24383;SDS011;12504;52.870;8.798;2023-12-20T09:22:09;15.40;;;3.63;;
24383;SDS011;12504;52.870;8.798;2023-12-20T09:24:35;15.13;;;4.38;;
24383;SDS011;12504;52.870;8.798;2023-12-20T09:27:01;13.63;;;4.00;;
24383;SDS011;12504;52.870;8.798;2023-12-20T09:29:27;12.15;;;3.72;;
24383;SDS011;12504;52.870;8.798;2023-12-20T09:31:53;13.82;;;3.83;;
24383;SDS011;12504;52.870;8.798;2023-12-20T09:34:19;10.73;;;3.10;;
24383;SDS011;12504;52.870;8.798;2023-12-20T09:36:45;17.10;;;3.95;;
24383;SDS011;12504;52.870;8.798;2023-12-20T09:39:15;18.42;;;3.38;;
24383;SDS011;12504;52.870;8.798;2023-12-20T09:41:45;12.43;;;4.60;;
24383;SDS011;12504;52.870;8.798;2023-12-20T09:44:18;13.00;;;3.47;;
24383;SDS011;12504;52.870;8.798;2023-12-20T09:46:44;13.70;;;4.10;;
24383;SDS011;12504;52.870;8.798;2023-12-20T09:49:14;11.73;;;3.67;;
24383;SDS011;12504;52.870;8.798;2023-12-20T09:51:43;12.07;;;3.42;;
24383;SDS011;12504;52.870;8.798;2023-12-20T09:54:12;11.32;;;3.53;;
24383;SDS011;12504;52.870;8.798;2023-12-20T09:59:07;13.82;;;4.07;;
24383;SDS011;12504;52.870;8.798;2023-12-20T10:01:33;8.30;;;3.03;;
24383;SDS011;12504;52.870;8.798;2023-12-20T10:04:01;11.80;;;4.78;;
24383;SDS011;12504;52.870;8.798;2023-12-20T10:06:52;6.10;;;2.78;;
24383;SDS011;12504;52.870;8.798;2023-12-20T10:09:18;13.50;;;4.00;;
24383;SDS011;12504;52.870;8.798;2023-12-20T10:11:43;10.43;;;3.50;;
24383;SDS011;12504;52.870;8.798;2023-12-20T10:14:10;12.35;;;3.30;;
24383;SDS011;12504;52.870;8.798;2023-12-20T10:16:36;18.50;;;3.80;;
24383;SDS011;12504;52.870;8.798;2023-12-20T10:19:02;17.70;;;4.03;;
24383;SDS011;12504;52.870;8.798;2023-12-20T10:21:27;17.33;;;3.75;;
24383;SDS011;12504;52.870;8.798;2023-12-20T10:23:56;9.00;;;3.20;;
24383;SDS011;12504;52.870;8.798;2023-12-20T10:26:23;2.95;;;1.30;;
24383;SDS011;12504;52.870;8.798;2023-12-20T10:28:56;2.13;;;1.17;;
24383;SDS011;12504;52.870;8.798;2023-12-20T10:31:27;2.05;;;0.82;;
24383;SDS011;12504;52.870;8.798;2023-12-20T10:33:57;1.73;;;0.95;;
24383;SDS011;12504;52.870;8.798;2023-12-20T10:36:24;12.13;;;1.05;;
24383;SDS011;12504;52.870;8.798;2023-12-20T10:38:52;7.78;;;1.05;;
24383;SDS011;12504;52.870;8.798;2023-12-20T10:41:24;2.17;;;0.80;;
24383;SDS011;12504;52.870;8.798;2023-12-20T10:43:58;5.22;;;1.05;;
24383;SDS011;12504;52.870;8.798;2023-12-20T10:46:29;4.50;;;1.00;;
24383;SDS011;12504;52.870;8.798;2023-12-20T10:48:56;6.50;;;0.85;;
24383;SDS011;12504;52.870;8.798;2023-12-20T10:51:22;3.50;;;0.82;;
24383;SDS011;12504;52.870;8.798;2023-12-20T10:53:53;6.80;;;1.30;;
24383;SDS011;12504;52.870;8.798;2023-12-20T10:56:19;1.95;;;0.98;;
24383;SDS011;12504;52.870;8.798;2023-12-20T10:58:46;5.93;;;1.45;;
24383;SDS011;12504;52.870;8.798;2023-12-20T11:01:14;3.15;;;0.65;;
24383;SDS011;12504;52.870;8.798;2023-12-20T11:03:44;0.73;;;0.60;;
24383;SDS011;12504;52.870;8.798;2023-12-20T11:06:19;5.88;;;1.05;;
24383;SDS011;12504;52.870;8.798;2023-12-20T11:09:14;5.50;;;1.27;;
24383;SDS011;12504;52.870;8.798;2023-12-20T11:14:41;2.53;;;0.90;;
24383;SDS011;12504;52.870;8.798;2023-12-20T11:17:11;1.02;;;0.70;;
24383;SDS011;12504;52.870;8.798;2023-12-20T11:22:26;1.73;;;0.80;;
24383;SDS011;12504;52.870;8.798;2023-12-20T11:24:56;3.17;;;0.75;;
24383;SDS011;12504;52.870;8.798;2023-12-20T11:27:27;4.75;;;0.80;;
24383;SDS011;12504;52.870;8.798;2023-12-20T11:29:57;1.63;;;0.70;;
24383;SDS011;12504;52.870;8.798;2023-12-20T11:34:59;6.90;;;1.15;;
24383;SDS011;12504;52.870;8.798;2023-12-20T11:37:41;4.95;;;0.82;;
24383;SDS011;12504;52.870;8.798;2023-12-20T11:40:16;4.32;;;0.80;;
24383;SDS011;12504;52.870;8.798;2023-12-20T11:42:48;8.80;;;1.30;;
24383;SDS011;12504;52.870;8.798;2023-12-20T11:45:16;8.98;;;1.10;;
24383;SDS011;12504;52.870;8.798;2023-12-20T11:47:46;8.15;;;1.23;;
24383;SDS011;12504;52.870;8.798;2023-12-20T11:50:18;1.50;;;0.50;;
24383;SDS011;12504;52.870;8.798;2023-12-20T11:52:45;4.30;;;1.05;;
24383;SDS011;12504;52.870;8.798;2023-12-20T11:55:11;3.35;;;1.50;;
24383;SDS011;12504;52.870;8.798;2023-12-20T11:57:37;5.00;;;1.00;;
24383;SDS011;12504;52.870;8.798;2023-12-20T12:00:03;4.93;;;1.10;;
24383;SDS011;12504;52.870;8.798;2023-12-20T12:02:37;2.15;;;0.60;;
24383;SDS011;12504;52.870;8.798;2023-12-20T12:05:03;2.85;;;0.98;;
24383;SDS011;12504;52.870;8.798;2023-12-20T12:07:31;5.30;;;0.90;;
24383;SDS011;12504;52.870;8.798;2023-12-20T12:09:58;2.92;;;0.90;;
24383;SDS011;12504;52.870;8.798;2023-12-20T12:12:24;8.20;;;1.10;;
24383;SDS011;12504;52.870;8.798;2023-12-20T12:14:53;1.75;;;0.75;;
24383;SDS011;12504;52.870;8.798;2023-12-20T12:17:19;3.58;;;0.85;;
24383;SDS011;12504;52.870;8.798;2023-12-20T12:19:45;2.92;;;1.10;;
24383;SDS011;12504;52.870;8.798;2023-12-20T12:22:12;11.55;;;0.95;;
24383;SDS011;12504;52.870;8.798;2023-12-20T12:24:40;6.10;;;1.25;;
24383;SDS011;12504;52.870;8.798;2023-12-20T12:27:07;6.97;;;1.30;;
24383;SDS011;12504;52.870;8.798;2023-12-20T12:29:33;3.00;;;0.70;;
24383;SDS011;12504;52.870;8.798;2023-12-20T12:31:59;3.33;;;1.15;;
24383;SDS011;12504;52.870;8.798;2023-12-20T12:34:30;2.72;;;1.50;;
24383;SDS011;12504;52.870;8.798;2023-12-20T12:37:00;5.57;;;1.05;;
24383;SDS011;12504;52.870;8.798;2023-12-20T12:39:26;9.65;;;1.20;;
24383;SDS011;12504;52.870;8.798;2023-12-20T12:41:51;10.73;;;1.35;;
24383;SDS011;12504;52.870;8.798;2023-12-20T12:44:18;7.88;;;1.55;;
24383;SDS011;12504;52.870;8.798;2023-12-20T12:46:47;4.90;;;1.00;;
24383;SDS011;12504;52.870;8.798;2023-12-20T12:49:16;7.50;;;1.23;;
24383;SDS011;12504;52.870;8.798;2023-12-20T12:51:42;3.22;;;0.82;;
24383;SDS011;12504;52.870;8.798;2023-12-20T12:54:08;6.05;;;1.77;;
24383;SDS011;12504;52.870;8.798;2023-12-20T12:56:34;3.10;;;1.10;;
24383;SDS011;12504;52.870;8.798;2023-12-20T12:59:01;4.13;;;1.95;;
24383;SDS011;12504;52.870;8.798;2023-12-20T13:01:28;6.47;;;1.10;;
24383;SDS011;12504;52.870;8.798;2023-12-20T13:03:53;8.32;;;1.30;;
24383;SDS011;12504;52.870;8.798;2023-12-20T13:06:19;7.43;;;1.13;;
24383;SDS011;12504;52.870;8.798;2023-12-20T13:08:45;8.25;;;1.42;;
24383;SDS011;12504;52.870;8.798;2023-12-20T13:11:11;6.13;;;1.10;;
24383;SDS011;12504;52.870;8.798;2023-12-20T13:13:36;6.25;;;1.17;;
24383;SDS011;12504;52.870;8.798;2023-12-20T13:16:02;3.20;;;0.88;;
24383;SDS011;12504;52.870;8.798;2023-12-20T13:18:28;10.05;;;1.33;;
24383;SDS011;12504;52.870;8.798;2023-12-20T13:20:57;6.72;;;1.27;;
24383;SDS011;12504;52.870;8.798;2023-12-20T13:23:29;5.95;;;1.42;;
24383;SDS011;12504;52.870;8.798;2023-12-20T13:25:56;7.82;;;1.08;;
24383;SDS011;12504;52.870;8.798;2023-12-20T13:28:21;4.45;;;1.13;;
24383;SDS011;12504;52.870;8.798;2023-12-20T13:30:47;3.20;;;1.02;;
24383;SDS011;12504;52.870;8.798;2023-12-20T13:33:13;9.48;;;1.40;;
24383;SDS011;12504;52.870;8.798;2023-12-20T13:35:38;5.70;;;1.20;;
24383;SDS011;12504;52.870;8.798;2023-12-20T13:38:04;4.15;;;0.88;;
24383;SDS011;12504;52.870;8.798;2023-12-20T13:40:33;5.13;;;1.38;;
24383;SDS011;12504;52.870;8.798;2023-12-20T13:42:59;3.28;;;0.88;;
24383;SDS011;12504;52.870;8.798;2023-12-20T13:45:25;5.75;;;1.30;;
24383;SDS011;12504;52.870;8.798;2023-12-20T13:47:50;6.82;;;1.35;;
24383;SDS011;12504;52.870;8.798;2023-12-20T13:50:16;6.32;;;1.38;;
24383;SDS011;12504;52.870;8.798;2023-12-20T13:52:42;3.33;;;1.33;;
24383;SDS011;12504;52.870;8.798;2023-12-20T13:55:08;5.60;;;1.35;;
24383;SDS011;12504;52.870;8.798;2023-12-20T13:57:34;7.38;;;2.00;;
24383;SDS011;12504;52.870;8.798;2023-12-20T14:00:03;5.40;;;1.23;;
24383;SDS011;12504;52.870;8.798;2023-12-20T14:02:32;12.60;;;1.70;;
24383;SDS011;12504;52.870;8.798;2023-12-20T14:04:58;4.30;;;0.85;;
24383;SDS011;12504;52.870;8.798;2023-12-20T14:07:23;11.80;;;1.25;;
24383;SDS011;12504;52.870;8.798;2023-12-20T14:09:49;5.60;;;1.30;;
24383;SDS011;12504;52.870;8.798;2023-12-20T14:12:14;5.78;;;1.50;;
24383;SDS011;12504;52.870;8.798;2023-12-20T14:14:40;4.32;;;1.60;;
24383;SDS011;12504;52.870;8.798;2023-12-20T14:17:06;11.95;;;1.20;;
24383;SDS011;12504;52.870;8.798;2023-12-20T14:19:32;10.05;;;1.20;;
24383;SDS011;12504;52.870;8.798;2023-12-20T14:21:58;7.72;;;1.02;;
24383;SDS011;12504;52.870;8.798;2023-12-20T14:24:26;10.98;;;1.75;;
24383;SDS011;12504;52.870;8.798;2023-12-20T14:26:52;8.57;;;1.38;;
24383;SDS011;12504;52.870;8.798;2023-12-20T14:29:18;9.05;;;1.83;;
24383;SDS011;12504;52.870;8.798;2023-12-20T14:31:44;7.72;;;1.38;;
24383;SDS011;12504;52.870;8.798;2023-12-20T14:34:09;7.45;;;1.48;;
24383;SDS011;12504;52.870;8.798;2023-12-20T14:36:35;5.40;;;1.75;;
24383;SDS011;12504;52.870;8.798;2023-12-20T14:39:00;7.70;;;1.58;;
24383;SDS011;12504;52.870;8.798;2023-12-20T14:41:28;3.47;;;1.25;;
24383;SDS011;12504;52.870;8.798;2023-12-20T14:43:54;7.18;;;1.38;;
24383;SDS011;12504;52.870;8.798;2023-12-20T14:46:20;2.95;;;1.35;;
24383;SDS011;12504;52.870;8.798;2023-12-20T14:48:49;10.82;;;2.00;;
24383;SDS011;12504;52.870;8.798;2023-12-20T14:51:18;7.07;;;0.88;;